CheckWX is a tool to help pilots better visualize weather data.  It is not intended as a substitute for an official pre-flight weather briefing.

19:58:49 UTC

SPCL TAF
Cap FAP David Abenzur Rengifo International Airport
Pucallpa, Peru
SPCL 251700Z 2518/2618 29004KT 9999 SCT020 TX33/2520Z TN21/2611Z TEMPO 2519/2523 BKN020 TEMPO 2608/2612 2000 BCFG BKN015 BKN080

Jun-25@
18:00 UTC

Jun-25 @ 18:00 UTC

Jun-26@
18:00 UTC

Jun-26 @ 18:00 UTC

SPCL 251700Z 2518/2618 29004KT 9999 SCT020 TX33/2520Z TN21/2611Z
Wind
  • 290° at 4 KTS
Cloud Levels
  • Scattered at 2,000' AGL

Jun-25@
19:00 UTC

Jun-25 @ 19:00 UTC

Jun-25@
23:00 UTC

Jun-25 @ 23:00 UTC

TEMPO 2519/2523 BKN020

Temporary

Temporary Changes expected for less than half the time period

Cloud Levels
  • Broken at 2,000' AGL

Jun-26@
08:00 UTC

Jun-26 @ 08:00 UTC

Jun-26@
12:00 UTC

Jun-26 @ 12:00 UTC

TEMPO 2608/2612 2000 BCFG BKN015 BKN080

Temporary

Temporary Changes expected for less than half the time period

Conditions
Patches of Fog
Cloud Levels
  • Broken at 1,500' AGL
  • Broken at 8,000' AGL